createdAt,value
2023-03-12T00:01:14.866Z,39.99
2023-03-12T00:03:41.783Z,39.58
2023-03-12T00:06:10.831Z,38.79
2023-03-12T00:08:37.739Z,38.85
2023-03-12T00:11:04.320Z,38.75
2023-03-12T00:13:30.878Z,38.10
2023-03-12T00:15:57.550Z,39.23
2023-03-12T00:18:24.172Z,38.99
2023-03-12T00:20:50.777Z,38.56
2023-03-12T00:23:17.352Z,38.36
2023-03-12T00:25:46.733Z,38.61
2023-03-12T00:28:13.526Z,38.59
2023-03-12T00:30:40.102Z,39.08
2023-03-12T00:33:06.684Z,39.20
2023-03-12T00:35:33.262Z,39.26
2023-03-12T00:37:59.846Z,39.08
2023-03-12T00:40:26.427Z,40.26
2023-03-12T00:42:53.007Z,40.47
2023-03-12T00:45:19.592Z,40.60
2023-03-12T00:47:46.194Z,41.09
2023-03-12T00:50:15.107Z,41.48
2023-03-12T00:52:41.724Z,42.20
2023-03-12T00:55:08.328Z,42.15
2023-03-12T00:57:36.794Z,42.39
2023-03-12T01:00:03.458Z,42.80
2023-03-12T01:02:30.082Z,41.36
2023-03-12T01:04:56.663Z,41.09
2023-03-12T01:07:23.234Z,40.30
2023-03-12T01:09:49.826Z,40.07
2023-03-12T01:12:16.376Z,41.56
2023-03-12T01:14:43.028Z,41.22
2023-03-12T01:17:09.623Z,40.65
2023-03-12T01:19:36.279Z,40.46
2023-03-12T01:22:02.847Z,41.54
2023-03-12T01:24:29.446Z,41.92
2023-03-12T01:26:56.015Z,41.40
2023-03-12T01:29:22.699Z,41.42
2023-03-12T01:31:49.365Z,41.43
2023-03-12T01:34:15.995Z,41.45
2023-03-12T01:36:42.584Z,41.89
2023-03-12T01:39:09.168Z,41.85
2023-03-12T01:41:35.731Z,42.01
2023-03-12T01:44:02.324Z,42.93
2023-03-12T01:46:29.061Z,44.12
2023-03-12T01:48:55.665Z,44.91
2023-03-12T01:51:22.241Z,43.63
2023-03-12T01:53:48.832Z,43.16
2023-03-12T01:56:15.421Z,44.32
2023-03-12T01:58:42.090Z,44.09
2023-03-12T02:01:08.802Z,44.11
2023-03-12T02:03:35.688Z,45.01
2023-03-12T02:06:02.367Z,44.43
2023-03-12T02:08:28.951Z,43.53
2023-03-12T02:10:55.579Z,43.56
2023-03-12T02:13:22.297Z,44.04
2023-03-12T02:15:48.874Z,43.83
2023-03-12T02:18:15.449Z,43.46
2023-03-12T02:20:42.040Z,44.32
2023-03-12T02:23:08.726Z,43.73
2023-03-12T02:25:35.298Z,43.97
2023-03-12T02:28:01.905Z,45.19
2023-03-12T02:30:28.510Z,44.28
2023-03-12T02:32:56.175Z,44.76
2023-03-12T02:35:22.750Z,44.53
2023-03-12T02:37:49.303Z,44.17
2023-03-12T02:40:15.914Z,45.37
2023-03-12T02:42:42.524Z,44.06
2023-03-12T02:45:09.114Z,45.10
2023-03-12T02:47:35.839Z,44.97
2023-03-12T02:50:02.387Z,45.46
2023-03-12T02:52:29.035Z,45.05
2023-03-12T02:54:55.625Z,45.64
2023-03-12T02:57:22.204Z,44.90
2023-03-12T02:59:48.763Z,45.38
2023-03-12T03:02:15.364Z,45.85
2023-03-12T03:04:41.946Z,45.83
2023-03-12T03:07:08.565Z,45.34
2023-03-12T03:09:35.185Z,45.18
2023-03-12T03:12:01.749Z,45.08
2023-03-12T03:14:28.454Z,45.72
2023-03-12T03:16:55.048Z,46.20
2023-03-12T03:19:21.628Z,46.26
2023-03-12T03:21:55.515Z,46.15
2023-03-12T03:24:22.240Z,45.72
2023-03-12T03:26:48.833Z,45.94
2023-03-12T03:29:15.436Z,46.21
2023-03-12T03:34:26.281Z,46.11
2023-03-12T03:36:52.857Z,46.58
2023-03-12T03:39:19.434Z,46.42
2023-03-12T03:41:46.000Z,46.19
2023-03-12T03:44:12.585Z,46.11
2023-03-12T03:46:39.182Z,45.94
2023-03-12T03:49:05.774Z,46.96
2023-03-12T03:51:32.351Z,45.59
2023-03-12T03:53:58.904Z,46.94
2023-03-12T03:56:25.553Z,47.44
2023-03-12T03:58:52.145Z,46.85
2023-03-12T04:01:18.823Z,47.60
2023-03-12T04:03:45.485Z,47.99
2023-03-12T04:06:12.155Z,47.30
2023-03-12T04:08:38.734Z,47.30
2023-03-12T04:11:05.366Z,46.98
2023-03-12T04:13:32.129Z,46.86
2023-03-12T04:15:58.742Z,47.34
2023-03-12T04:18:25.463Z,47.02
2023-03-12T04:20:52.049Z,46.67
2023-03-12T04:23:18.639Z,47.08
2023-03-12T04:25:45.434Z,47.06
2023-03-12T04:28:12.095Z,47.36
2023-03-12T04:30:38.741Z,48.00
2023-03-12T04:33:05.366Z,48.54
2023-03-12T04:35:31.973Z,48.22
2023-03-12T04:37:58.595Z,48.67
2023-03-12T04:40:25.199Z,48.60
2023-03-12T04:42:51.784Z,48.52
2023-03-12T04:45:18.398Z,48.60
2023-03-12T04:47:45.007Z,48.72
2023-03-12T04:50:11.588Z,48.31
2023-03-12T04:52:38.151Z,48.59
2023-03-12T04:55:04.764Z,48.73
2023-03-12T04:57:31.364Z,48.51
2023-03-12T04:59:57.987Z,48.52
2023-03-12T05:02:24.607Z,49.07
2023-03-12T05:04:51.171Z,49.67
2023-03-12T05:07:17.771Z,50.97
2023-03-12T05:09:44.358Z,50.08
2023-03-12T05:12:11.138Z,50.24
2023-03-12T05:14:37.687Z,50.95
2023-03-12T05:17:04.268Z,50.71
2023-03-12T05:19:30.797Z,50.28
2023-03-12T05:21:57.381Z,50.33
2023-03-12T05:24:23.995Z,50.22
2023-03-12T05:26:50.570Z,51.40
2023-03-12T05:29:17.329Z,50.82
2023-03-12T05:31:44.007Z,50.41
2023-03-12T05:34:10.630Z,49.96
2023-03-12T05:36:37.557Z,49.55
2023-03-12T05:39:04.129Z,50.10
2023-03-12T05:41:30.702Z,50.73
2023-03-12T05:43:57.279Z,50.72
2023-03-12T05:46:23.888Z,50.41
2023-03-12T05:48:50.535Z,50.15
2023-03-12T05:51:17.091Z,49.90
2023-03-12T05:53:43.665Z,49.42
2023-03-12T05:56:10.224Z,49.35
2023-03-12T05:58:36.838Z,49.63
2023-03-12T06:01:03.425Z,49.30
2023-03-12T06:03:30.111Z,49.48
2023-03-12T06:05:56.765Z,49.00
2023-03-12T06:08:23.471Z,49.23
2023-03-12T06:10:50.078Z,48.88
2023-03-12T06:13:16.667Z,48.42
2023-03-12T06:15:44.258Z,48.26
2023-03-12T06:18:10.860Z,48.56
2023-03-12T06:20:37.418Z,48.74
2023-03-12T06:23:04.059Z,49.05
2023-03-12T06:25:30.645Z,48.74
2023-03-12T06:27:57.279Z,47.87
2023-03-12T06:30:23.871Z,47.94
2023-03-12T06:32:50.547Z,48.53
2023-03-12T06:35:17.191Z,48.04
2023-03-12T06:37:43.778Z,47.66
2023-03-12T06:40:10.434Z,47.73
2023-03-12T06:42:36.999Z,47.78
2023-03-12T06:45:03.571Z,46.89
2023-03-12T06:47:30.208Z,46.32
2023-03-12T06:49:57.213Z,46.45
2023-03-12T06:52:23.851Z,46.17
2023-03-12T06:54:50.463Z,46.48
2023-03-12T06:57:17.037Z,45.39
2023-03-12T06:59:43.626Z,45.76
2023-03-12T07:02:10.268Z,46.28
2023-03-12T07:04:36.909Z,45.48
2023-03-12T07:07:03.530Z,45.69
2023-03-12T07:09:30.084Z,46.67
2023-03-12T07:11:56.690Z,46.12
2023-03-12T07:14:23.273Z,45.33
2023-03-12T07:16:49.835Z,44.69
2023-03-12T07:19:16.447Z,45.01
2023-03-12T07:21:43.001Z,45.59
2023-03-12T07:24:09.614Z,46.78
2023-03-12T07:26:36.553Z,46.49
2023-03-12T07:29:03.119Z,47.29
2023-03-12T07:31:29.851Z,46.12
2023-03-12T07:33:56.534Z,45.27
2023-03-12T07:36:23.816Z,44.63
2023-03-12T07:38:51.058Z,44.28
2023-03-12T07:41:17.668Z,43.57
2023-03-12T07:43:44.551Z,44.37
2023-03-12T07:46:11.198Z,43.54
2023-03-12T07:48:37.935Z,45.11
2023-03-12T07:51:04.540Z,46.45
2023-03-12T07:53:31.153Z,46.16
2023-03-12T07:55:57.828Z,44.96
2023-03-12T07:58:24.526Z,46.94
2023-03-12T08:00:51.225Z,45.94
2023-03-12T08:03:26.729Z,45.65
2023-03-12T08:05:53.529Z,44.89
2023-03-12T08:08:20.137Z,43.45
2023-03-12T08:10:46.749Z,43.26
2023-03-12T08:13:13.343Z,42.78
2023-03-12T08:15:39.948Z,42.62
2023-03-12T08:18:06.526Z,44.55
2023-03-12T08:20:33.107Z,43.50
2023-03-12T08:22:59.708Z,41.85
2023-03-12T08:25:26.316Z,42.28
2023-03-12T08:27:52.887Z,42.60
2023-03-12T08:30:19.635Z,41.40
2023-03-12T08:32:46.274Z,41.16
2023-03-12T08:35:12.900Z,41.61
2023-03-12T08:37:39.489Z,41.01
2023-03-12T08:40:06.081Z,41.42
2023-03-12T08:42:32.636Z,42.45
2023-03-12T08:44:59.367Z,43.18
2023-03-12T08:47:25.924Z,42.12
2023-03-12T08:49:52.561Z,42.39
2023-03-12T08:52:19.372Z,41.37
2023-03-12T08:54:48.306Z,41.35
2023-03-12T08:57:14.896Z,42.63
2023-03-12T08:59:41.460Z,41.56
2023-03-12T09:02:08.057Z,40.30
2023-03-12T09:04:34.648Z,40.60
2023-03-12T09:07:01.276Z,40.18
2023-03-12T09:09:27.847Z,40.05
2023-03-12T09:11:54.470Z,39.66
2023-03-12T09:17:07.594Z,39.20
2023-03-12T09:19:34.183Z,39.08
2023-03-12T09:22:00.735Z,38.03
2023-03-12T09:24:27.324Z,38.96
2023-03-12T09:26:54.002Z,38.39
2023-03-12T09:29:20.607Z,37.92
2023-03-12T09:31:47.184Z,37.61
2023-03-12T09:34:13.789Z,37.04
2023-03-12T09:36:40.387Z,37.42
2023-03-12T09:39:06.981Z,37.23
2023-03-12T09:41:33.590Z,36.01
2023-03-12T09:44:02.277Z,37.50
2023-03-12T09:46:28.953Z,36.40
2023-03-12T09:48:55.653Z,36.64
2023-03-12T09:51:22.274Z,36.31
2023-03-12T09:53:48.880Z,35.29
2023-03-12T09:56:15.460Z,37.12
2023-03-12T09:58:42.039Z,37.25
2023-03-12T10:01:08.634Z,36.88
2023-03-12T10:03:35.318Z,36.18
2023-03-12T10:06:01.956Z,36.75
2023-03-12T10:08:29.093Z,36.33
2023-03-12T10:10:56.656Z,35.89
2023-03-12T10:13:23.307Z,35.50
2023-03-12T10:15:49.967Z,35.30
2023-03-12T10:18:16.776Z,35.71
2023-03-12T10:20:43.573Z,35.80
2023-03-12T10:23:10.251Z,35.41
2023-03-12T10:25:36.831Z,35.40
2023-03-12T10:28:03.414Z,35.57
2023-03-12T10:30:29.981Z,37.53
2023-03-12T10:32:56.652Z,37.22
2023-03-12T10:35:23.298Z,37.09
2023-03-12T10:37:49.912Z,37.34
2023-03-12T10:40:16.472Z,38.50
2023-03-12T10:42:45.408Z,37.87
2023-03-12T10:45:12.129Z,37.86
2023-03-12T10:47:38.697Z,35.94
2023-03-12T10:50:05.294Z,34.58
2023-03-12T10:52:31.859Z,35.97
2023-03-12T10:54:58.491Z,36.03
2023-03-12T10:57:25.065Z,36.15
2023-03-12T10:59:51.702Z,36.70
2023-03-12T11:02:18.630Z,35.88
2023-03-12T11:04:45.218Z,35.92
2023-03-12T11:07:11.823Z,35.62
2023-03-12T11:09:38.397Z,35.49
2023-03-12T11:12:05.247Z,36.28
2023-03-12T11:14:31.833Z,36.08
2023-03-12T11:16:58.444Z,35.09
2023-03-12T11:19:25.198Z,34.99
2023-03-12T11:21:51.759Z,34.78
2023-03-12T11:24:18.327Z,35.49
2023-03-12T11:26:44.915Z,36.14
2023-03-12T11:29:11.524Z,35.21
2023-03-12T11:31:38.160Z,35.73
2023-03-12T11:34:04.734Z,34.55
2023-03-12T11:36:31.413Z,35.43
2023-03-12T11:38:58.176Z,34.30
2023-03-12T11:41:24.821Z,33.40
2023-03-12T11:43:51.409Z,34.32
2023-03-12T11:46:18.036Z,33.78
2023-03-12T11:48:44.780Z,34.29
2023-03-12T11:51:11.454Z,34.60
2023-03-12T11:53:38.042Z,33.70
2023-03-12T11:56:04.614Z,34.03
2023-03-12T11:58:31.202Z,33.67
2023-03-12T12:00:57.788Z,34.54
2023-03-12T12:03:24.450Z,34.62
2023-03-12T12:05:51.106Z,34.59
2023-03-12T12:08:17.701Z,33.36
2023-03-12T12:10:44.309Z,34.35
2023-03-12T12:13:10.950Z,35.20
2023-03-12T12:15:37.590Z,33.40
2023-03-12T12:18:04.187Z,34.21
2023-03-12T12:20:30.766Z,33.84
2023-03-12T12:22:57.367Z,33.44
2023-03-12T12:25:24.069Z,34.01
2023-03-12T12:27:50.824Z,34.30
2023-03-12T12:30:17.408Z,33.55
2023-03-12T12:32:44.103Z,33.07
2023-03-12T12:35:13.630Z,33.56
2023-03-12T12:37:40.708Z,33.39
2023-03-12T12:40:07.291Z,33.24
2023-03-12T12:42:33.895Z,33.10
2023-03-12T12:45:00.463Z,32.52
2023-03-12T12:50:11.109Z,33.31
2023-03-12T12:52:37.684Z,33.32
2023-03-12T12:55:04.238Z,32.12
2023-03-12T12:57:31.039Z,32.69
2023-03-12T12:59:57.626Z,33.35
2023-03-12T13:02:24.211Z,32.92
2023-03-12T13:04:50.794Z,33.27
2023-03-12T13:07:17.380Z,33.33
2023-03-12T13:09:43.970Z,33.92
2023-03-12T13:12:10.538Z,33.63
2023-03-12T13:14:37.147Z,33.43
2023-03-12T13:17:04.097Z,32.38
2023-03-12T13:19:30.742Z,33.12
2023-03-12T13:21:57.416Z,33.22
2023-03-12T13:24:24.043Z,34.38
2023-03-12T13:26:50.622Z,33.91
2023-03-12T13:29:17.190Z,33.67
2023-03-12T13:31:43.786Z,33.76
2023-03-12T13:34:10.360Z,33.13
2023-03-12T13:36:36.952Z,32.42
2023-03-12T13:39:03.546Z,33.06
2023-03-12T13:41:31.823Z,33.62
2023-03-12T13:43:58.521Z,33.42
2023-03-12T13:46:25.231Z,33.56
2023-03-12T13:48:51.858Z,33.36
2023-03-12T13:51:18.624Z,33.94
2023-03-12T13:53:45.192Z,33.21
2023-03-12T13:56:11.805Z,32.88
2023-03-12T13:58:38.398Z,32.42
2023-03-12T14:01:04.998Z,33.41
2023-03-12T14:03:31.580Z,32.70
2023-03-12T14:05:58.203Z,31.92
2023-03-12T14:08:25.785Z,32.40
2023-03-12T14:10:52.429Z,31.91
2023-03-12T14:13:19.023Z,31.74
2023-03-12T14:15:45.661Z,31.26
2023-03-12T14:18:12.350Z,32.05
2023-03-12T14:20:39.026Z,31.27
2023-03-12T14:23:05.629Z,30.85
2023-03-12T14:25:32.304Z,30.82
2023-03-12T14:27:59.053Z,31.44
2023-03-12T14:30:25.636Z,32.82
2023-03-12T14:32:52.296Z,32.96
2023-03-12T14:35:18.899Z,32.94
2023-03-12T14:37:45.470Z,32.43
2023-03-12T14:40:12.140Z,32.46
2023-03-12T14:42:38.714Z,31.55
2023-03-12T14:45:05.333Z,31.17
2023-03-12T14:47:32.166Z,30.37
2023-03-12T14:49:58.733Z,29.99
2023-03-12T14:52:25.357Z,30.82
2023-03-12T14:54:51.912Z,30.28
2023-03-12T14:57:18.530Z,30.37
2023-03-12T14:59:45.267Z,30.73
2023-03-12T15:02:11.958Z,30.56
2023-03-12T15:04:38.616Z,31.27
2023-03-12T15:07:05.241Z,30.70
2023-03-12T15:09:31.831Z,31.21
2023-03-12T15:11:58.512Z,31.92
2023-03-12T15:14:25.091Z,32.23
2023-03-12T15:16:51.660Z,31.41
2023-03-12T15:19:18.249Z,30.59
2023-03-12T15:21:44.832Z,31.29
2023-03-12T15:24:11.483Z,31.48
2023-03-12T15:26:38.131Z,32.45
2023-03-12T15:29:04.885Z,33.33
2023-03-12T15:31:31.705Z,32.54
2023-03-12T15:33:58.447Z,31.83
2023-03-12T15:36:25.196Z,31.33
2023-03-12T15:38:51.813Z,31.90
2023-03-12T15:41:18.397Z,32.38
2023-03-12T15:43:45.161Z,32.56
2023-03-12T15:46:12.176Z,31.83
2023-03-12T15:48:38.839Z,31.85
2023-03-12T15:51:05.428Z,31.84
2023-03-12T15:53:32.014Z,32.52
2023-03-12T15:55:58.595Z,32.07
2023-03-12T15:58:25.179Z,31.89
2023-03-12T16:00:51.849Z,31.57
2023-03-12T16:03:18.471Z,31.76
2023-03-12T16:05:45.023Z,31.90
2023-03-12T16:08:11.610Z,32.70
2023-03-12T16:10:38.198Z,32.75
2023-03-12T16:13:04.798Z,32.62
2023-03-12T16:15:31.407Z,32.62
2023-03-12T16:17:57.967Z,32.72
2023-03-12T16:20:24.706Z,32.95
2023-03-12T16:22:51.441Z,33.42
2023-03-12T16:25:18.057Z,32.82
2023-03-12T16:27:44.607Z,32.88
2023-03-12T16:30:11.194Z,32.69
2023-03-12T16:32:37.792Z,33.11
2023-03-12T16:35:04.378Z,33.81
2023-03-12T16:37:30.976Z,34.08
2023-03-12T16:39:57.852Z,33.68
2023-03-12T16:42:24.469Z,33.65
2023-03-12T16:44:51.049Z,34.26
2023-03-12T16:47:17.702Z,34.45
2023-03-12T16:49:44.289Z,33.91
2023-03-12T16:52:10.898Z,33.67
2023-03-12T16:54:37.465Z,33.95
2023-03-12T16:57:04.031Z,34.07
2023-03-12T16:59:30.648Z,34.45
2023-03-12T17:01:57.632Z,34.55
2023-03-12T17:04:24.311Z,34.56
2023-03-12T17:06:51.033Z,34.60
2023-03-12T17:09:17.600Z,34.46
2023-03-12T17:11:44.232Z,34.82
2023-03-12T17:14:10.824Z,35.11
2023-03-12T17:16:37.528Z,35.52
2023-03-12T17:19:04.136Z,34.97
2023-03-12T17:21:30.718Z,35.25
2023-03-12T17:23:57.558Z,35.35
2023-03-12T17:26:24.130Z,35.42
2023-03-12T17:28:50.682Z,35.47
2023-03-12T17:31:17.312Z,35.41
2023-03-12T17:33:43.902Z,35.38
2023-03-12T17:36:10.509Z,35.87
2023-03-12T17:38:37.065Z,35.99
2023-03-12T17:41:04.677Z,36.24
2023-03-12T17:43:31.664Z,36.23
2023-03-12T17:45:58.288Z,36.92
2023-03-12T17:48:24.869Z,37.62
2023-03-12T17:50:51.652Z,37.54
2023-03-12T17:53:18.250Z,37.75
2023-03-12T17:55:44.980Z,37.81
2023-03-12T17:58:11.565Z,38.68
2023-03-12T18:00:38.126Z,38.56
2023-03-12T18:03:04.799Z,38.85
2023-03-12T18:05:31.386Z,38.75
2023-03-12T18:07:57.961Z,38.95
2023-03-12T18:10:24.554Z,39.54
2023-03-12T18:12:51.143Z,39.98
2023-03-12T18:15:17.786Z,40.18
2023-03-12T18:17:44.591Z,40.53
2023-03-12T18:20:11.170Z,40.08
2023-03-12T18:22:37.759Z,40.72
2023-03-12T18:25:04.379Z,40.48
2023-03-12T18:27:30.960Z,41.16
2023-03-12T18:29:57.518Z,40.68
2023-03-12T18:32:24.161Z,40.83
2023-03-12T18:34:50.736Z,41.53
2023-03-12T18:37:17.365Z,41.94
2023-03-12T18:39:44.018Z,41.86
2023-03-12T18:42:10.591Z,41.88
2023-03-12T18:44:37.183Z,41.71
2023-03-12T18:47:03.752Z,42.18
2023-03-12T18:49:30.335Z,42.47
2023-03-12T18:51:56.927Z,42.41
2023-03-12T18:54:24.696Z,42.09
2023-03-12T18:56:51.530Z,41.93
2023-03-12T18:59:18.125Z,42.46
2023-03-12T19:01:44.719Z,42.42
2023-03-12T19:04:11.456Z,41.86
2023-03-12T19:06:50.057Z,43.44
2023-03-12T19:09:17.618Z,42.65
2023-03-12T19:11:44.610Z,42.83
2023-03-12T19:14:11.222Z,43.49
2023-03-12T19:16:38.028Z,43.61
2023-03-12T19:19:04.704Z,44.29
2023-03-12T19:21:31.307Z,44.23
2023-03-12T19:23:57.903Z,45.35
2023-03-12T19:26:24.484Z,45.17
2023-03-12T19:28:51.086Z,44.96
2023-03-12T19:31:17.685Z,44.75
2023-03-12T19:33:44.308Z,44.99
2023-03-12T19:36:10.898Z,44.99
2023-03-12T19:38:37.584Z,45.15
2023-03-12T19:41:04.181Z,45.01
2023-03-12T19:43:30.792Z,45.84
2023-03-12T19:45:57.417Z,45.06
2023-03-12T19:48:24.151Z,46.63
2023-03-12T19:50:50.727Z,45.57
2023-03-12T19:53:17.324Z,45.52
2023-03-12T19:55:43.901Z,45.74
2023-03-12T19:58:10.477Z,45.70
2023-03-12T20:00:37.080Z,45.41
2023-03-12T20:03:03.785Z,45.58
2023-03-12T20:05:30.461Z,46.06
2023-03-12T20:07:57.281Z,46.05
2023-03-12T20:10:23.859Z,46.31
2023-03-12T20:12:50.475Z,46.23
2023-03-12T20:15:17.094Z,46.22
2023-03-12T20:17:43.652Z,46.65
2023-03-12T20:20:10.246Z,46.21
2023-03-12T20:22:36.834Z,46.21
2023-03-12T20:25:03.473Z,46.32
2023-03-12T20:27:30.210Z,46.81
2023-03-12T20:29:56.804Z,46.95
2023-03-12T20:32:23.454Z,47.12
2023-03-12T20:34:50.085Z,47.38
2023-03-12T20:37:16.751Z,47.37
2023-03-12T20:39:43.354Z,47.73
2023-03-12T20:42:09.935Z,47.45
2023-03-12T20:44:36.651Z,47.91
2023-03-12T20:47:03.272Z,47.83
2023-03-12T20:49:29.893Z,50.31
2023-03-12T20:51:56.480Z,48.97
2023-03-12T20:54:23.071Z,50.75
2023-03-12T20:56:49.853Z,50.78
2023-03-12T20:59:16.657Z,49.70
2023-03-12T21:01:43.350Z,49.34
2023-03-12T21:04:10.064Z,49.59
2023-03-12T21:06:36.903Z,49.25
2023-03-12T21:09:03.504Z,49.54
2023-03-12T21:11:30.141Z,49.65
2023-03-12T21:13:56.728Z,49.44
2023-03-12T21:16:23.381Z,48.78
2023-03-12T21:18:49.985Z,48.71
2023-03-12T21:21:16.567Z,49.05
2023-03-12T21:23:43.210Z,48.81
2023-03-12T21:26:09.922Z,50.16
2023-03-12T21:28:36.529Z,51.63
2023-03-12T21:31:03.217Z,51.18
2023-03-12T21:33:29.804Z,50.19
2023-03-12T21:35:56.472Z,49.97
2023-03-12T21:38:23.117Z,49.99
2023-03-12T21:40:49.702Z,49.58
2023-03-12T21:43:16.430Z,50.78
2023-03-12T21:45:42.989Z,50.53
2023-03-12T21:48:09.585Z,50.17
2023-03-12T21:50:36.141Z,49.84
2023-03-12T21:53:05.078Z,50.59
2023-03-12T21:55:38.255Z,51.26
2023-03-12T21:58:04.863Z,51.83
2023-03-12T22:00:31.420Z,50.44
2023-03-12T22:02:58.156Z,50.41
2023-03-12T22:05:24.726Z,50.04
2023-03-12T22:07:51.281Z,52.45
2023-03-12T22:10:17.877Z,53.63
2023-03-12T22:12:44.476Z,52.66
2023-03-12T22:15:11.061Z,52.52
2023-03-12T22:17:37.626Z,52.55
2023-03-12T22:20:04.213Z,52.08
2023-03-12T22:22:31.002Z,52.77
2023-03-12T22:24:57.570Z,51.44
2023-03-12T22:27:24.150Z,51.73
2023-03-12T22:29:50.737Z,52.69
2023-03-12T22:32:17.458Z,52.43
2023-03-12T22:34:44.077Z,52.08
2023-03-12T22:37:10.654Z,52.62
2023-03-12T22:39:37.236Z,51.44
2023-03-12T22:42:03.827Z,52.16
2023-03-12T22:44:30.385Z,51.86
2023-03-12T22:46:58.068Z,52.88
2023-03-12T22:49:24.773Z,53.27
2023-03-12T22:51:51.365Z,52.32
2023-03-12T22:54:17.974Z,52.16
2023-03-12T22:56:44.620Z,51.96
2023-03-12T22:59:11.202Z,53.34
2023-03-12T23:01:37.867Z,53.73
2023-03-12T23:04:04.446Z,52.59
2023-03-12T23:06:31.299Z,52.42
2023-03-12T23:08:57.953Z,52.70
2023-03-12T23:11:24.579Z,53.39
2023-03-12T23:13:51.186Z,54.35
2023-03-12T23:16:17.850Z,53.82
2023-03-12T23:18:44.495Z,54.67
2023-03-12T23:21:11.177Z,54.23
2023-03-12T23:23:37.747Z,53.21
2023-03-12T23:26:04.359Z,53.41
2023-03-12T23:28:30.945Z,53.08
2023-03-12T23:30:57.620Z,53.88
2023-03-12T23:33:25.215Z,53.10
2023-03-12T23:35:51.823Z,53.28
2023-03-12T23:38:18.640Z,54.25
2023-03-12T23:40:45.228Z,53.57
2023-03-12T23:43:12.092Z,53.40
2023-03-12T23:45:38.676Z,52.72
2023-03-12T23:48:05.439Z,53.11
2023-03-12T23:50:32.017Z,53.82
2023-03-12T23:52:58.598Z,53.64
2023-03-12T23:55:25.149Z,54.27
2023-03-12T23:57:51.728Z,53.76
